createdAt,value
2018-08-19T00:00:15.657Z,49.60
2018-08-19T00:02:17.666Z,49.60
2018-08-19T00:04:19.706Z,49.60
2018-08-19T00:06:21.691Z,49.60
2018-08-19T00:08:23.714Z,49.60
2018-08-19T00:10:25.708Z,49.70
2018-08-19T00:12:27.686Z,49.60
2018-08-19T00:14:29.732Z,49.70
2018-08-19T00:16:31.716Z,49.70
2018-08-19T00:18:33.688Z,49.80
2018-08-19T00:20:35.704Z,49.70
2018-08-19T00:22:37.738Z,49.70
2018-08-19T00:24:39.721Z,49.80
2018-08-19T00:26:41.705Z,49.80
2018-08-19T00:28:43.732Z,49.80
2018-08-19T00:30:45.754Z,49.80
2018-08-19T00:32:47.752Z,49.80
2018-08-19T00:34:49.767Z,49.80
2018-08-19T00:36:51.768Z,49.90
2018-08-19T00:38:53.784Z,49.80
2018-08-19T00:40:55.773Z,49.90
2018-08-19T00:42:57.797Z,50.00
2018-08-19T00:44:59.853Z,50.00
2018-08-19T00:47:01.838Z,50.00
2018-08-19T00:49:03.823Z,50.00
2018-08-19T00:51:05.817Z,50.00
2018-08-19T00:53:07.819Z,50.00
2018-08-19T00:55:09.903Z,50.00
2018-08-19T00:57:12.237Z,50.00
2018-08-19T00:59:14.256Z,50.70
2018-08-19T01:01:16.271Z,50.10
2018-08-19T01:03:18.281Z,50.10
2018-08-19T01:05:20.305Z,50.10
2018-08-19T01:07:22.335Z,50.10
2018-08-19T01:09:24.330Z,50.10
2018-08-19T01:11:26.375Z,50.90
2018-08-19T01:13:28.387Z,50.20
2018-08-19T01:15:30.366Z,50.20
2018-08-19T01:17:32.411Z,50.20
2018-08-19T01:19:34.413Z,50.20
2018-08-19T01:21:36.378Z,50.20
2018-08-19T01:23:38.404Z,50.10
2018-08-19T01:25:40.389Z,50.90
2018-08-19T01:27:42.372Z,50.20
2018-08-19T01:29:44.399Z,50.20
2018-08-19T01:31:46.386Z,50.30
2018-08-19T01:33:48.408Z,50.30
2018-08-19T01:35:50.412Z,50.30
2018-08-19T01:37:52.379Z,50.40
2018-08-19T01:39:54.394Z,50.30
2018-08-19T01:41:56.451Z,50.40
2018-08-19T01:43:58.447Z,50.40
2018-08-19T01:46:00.434Z,50.40
2018-08-19T01:48:02.454Z,50.40
2018-08-19T01:50:04.436Z,50.40
2018-08-19T01:52:06.456Z,50.50
2018-08-19T01:54:08.444Z,50.50
2018-08-19T01:56:10.432Z,50.50
2018-08-19T01:58:12.466Z,50.50
2018-08-19T02:00:14.486Z,50.50
2018-08-19T02:02:16.478Z,50.50
2018-08-19T02:04:18.486Z,50.50
2018-08-19T02:06:20.482Z,50.50
2018-08-19T02:08:22.486Z,50.60
2018-08-19T02:10:24.505Z,50.60
2018-08-19T02:12:26.499Z,50.60
2018-08-19T02:14:28.492Z,50.70
2018-08-19T02:16:30.516Z,50.80
2018-08-19T02:18:32.492Z,50.90
2018-08-19T02:20:34.538Z,51.50
2018-08-19T02:22:36.497Z,51.70
2018-08-19T02:24:38.490Z,51.10
2018-08-19T02:26:40.578Z,51.20
2018-08-19T02:28:42.577Z,51.10
2018-08-19T02:30:44.602Z,51.20
2018-08-19T02:32:46.626Z,51.20
2018-08-19T02:34:48.622Z,51.30
2018-08-19T02:36:50.630Z,51.30
2018-08-19T02:38:52.644Z,51.30
2018-08-19T02:40:54.664Z,50.70
2018-08-19T02:42:56.634Z,51.30
2018-08-19T02:44:58.609Z,51.40
2018-08-19T02:47:00.624Z,51.40
2018-08-19T02:49:02.643Z,51.40
2018-08-19T02:51:04.601Z,51.40
2018-08-19T02:53:06.568Z,51.50
2018-08-19T02:55:08.621Z,51.50
2018-08-19T02:57:10.591Z,51.50
2018-08-19T02:59:12.598Z,51.50
2018-08-19T03:01:14.635Z,51.40
2018-08-19T03:03:16.601Z,51.50
2018-08-19T03:05:18.624Z,51.50
2018-08-19T03:07:20.597Z,51.30
2018-08-19T03:09:22.636Z,51.50
2018-08-19T03:11:24.610Z,51.50
2018-08-19T03:13:26.600Z,51.40
2018-08-19T03:15:28.599Z,51.40
2018-08-19T03:17:30.575Z,51.40
2018-08-19T03:19:32.572Z,51.40
2018-08-19T03:21:34.587Z,51.40
2018-08-19T03:23:36.563Z,51.40
2018-08-19T03:25:38.565Z,51.40
2018-08-19T03:27:40.596Z,51.40
2018-08-19T03:29:42.566Z,51.30
2018-08-19T03:31:44.565Z,51.40
2018-08-19T03:33:46.589Z,51.50
2018-08-19T03:35:48.587Z,51.40
2018-08-19T03:37:50.651Z,51.40
2018-08-19T03:39:52.624Z,51.40
2018-08-19T03:41:54.673Z,51.50
2018-08-19T03:43:56.668Z,51.50
2018-08-19T03:45:58.667Z,51.60
2018-08-19T03:48:00.685Z,51.60
2018-08-19T03:50:02.692Z,51.60
2018-08-19T03:52:04.693Z,51.50
2018-08-19T03:54:06.657Z,52.30
2018-08-19T03:56:08.669Z,51.50
2018-08-19T03:58:10.716Z,51.50
2018-08-19T04:00:12.687Z,51.50
2018-08-19T04:02:14.701Z,51.60
2018-08-19T04:04:16.674Z,51.60
2018-08-19T04:06:18.797Z,51.60
2018-08-19T04:08:20.837Z,51.60
2018-08-19T04:10:22.793Z,51.70
2018-08-19T04:12:24.825Z,51.80
2018-08-19T04:14:26.808Z,51.80
2018-08-19T04:16:28.786Z,51.60
2018-08-19T04:18:30.805Z,51.60
2018-08-19T04:20:32.773Z,51.70
2018-08-19T04:22:34.794Z,51.70
2018-08-19T04:24:36.805Z,51.70
2018-08-19T04:26:38.796Z,51.70
2018-08-19T04:28:40.815Z,51.70
2018-08-19T04:30:42.866Z,51.80
2018-08-19T04:32:44.861Z,51.70
2018-08-19T04:34:46.888Z,51.70
2018-08-19T04:36:48.903Z,51.70
2018-08-19T04:38:50.892Z,51.70
2018-08-19T04:40:52.871Z,51.70
2018-08-19T04:42:54.890Z,51.70
2018-08-19T04:44:56.858Z,51.70
2018-08-19T04:46:58.846Z,51.70
2018-08-19T04:49:00.849Z,51.70
2018-08-19T04:51:02.817Z,51.80
2018-08-19T04:53:04.829Z,51.80
2018-08-19T04:55:06.848Z,52.20
2018-08-19T04:57:08.825Z,52.60
2018-08-19T04:59:10.823Z,53.10
2018-08-19T05:01:12.826Z,53.70
2018-08-19T05:03:15.104Z,54.50
2018-08-19T05:05:17.103Z,54.30
2018-08-19T05:07:19.073Z,54.40
2018-08-19T05:09:21.085Z,54.70
2018-08-19T05:11:23.065Z,55.00
2018-08-19T05:13:25.264Z,55.30
2018-08-19T05:15:27.295Z,55.60
2018-08-19T05:17:29.425Z,55.80
2018-08-19T05:19:31.417Z,56.00
2018-08-19T05:21:33.413Z,56.20
2018-08-19T05:23:35.407Z,56.40
2018-08-19T05:25:37.391Z,56.40
2018-08-19T05:27:39.368Z,56.60
2018-08-19T05:29:41.392Z,56.80
2018-08-19T05:31:43.360Z,57.00
2018-08-19T05:33:45.370Z,57.10
2018-08-19T05:35:47.353Z,57.30
2018-08-19T05:37:49.350Z,57.60
2018-08-19T05:39:51.352Z,57.80
2018-08-19T05:41:53.326Z,57.90
2018-08-19T05:43:55.298Z,58.20
2018-08-19T05:45:57.309Z,58.50
2018-08-19T05:47:59.286Z,58.90
2018-08-19T05:50:01.313Z,59.10
2018-08-19T05:52:03.331Z,58.90
2018-08-19T05:54:05.406Z,58.50
2018-08-19T05:56:07.323Z,58.60
2018-08-19T05:58:09.334Z,58.50
2018-08-19T06:00:11.380Z,58.60
2018-08-19T06:02:13.377Z,58.40
2018-08-19T06:04:15.437Z,58.40
2018-08-19T06:06:17.423Z,58.10
2018-08-19T06:08:19.393Z,57.90
2018-08-19T06:10:21.352Z,58.30
2018-08-19T06:12:23.395Z,58.80
2018-08-19T06:14:25.411Z,59.00
2018-08-19T06:16:27.410Z,59.20
2018-08-19T06:18:29.391Z,59.40
2018-08-19T06:20:31.385Z,59.30
2018-08-19T06:22:33.409Z,59.20
2018-08-19T06:24:35.422Z,59.20
2018-08-19T06:26:37.362Z,59.50
2018-08-19T06:28:39.382Z,59.60
2018-08-19T06:30:41.390Z,59.50
2018-08-19T06:32:43.414Z,59.40
2018-08-19T06:34:45.467Z,59.40
2018-08-19T06:36:47.381Z,59.30
2018-08-19T06:38:49.386Z,59.80
2018-08-19T06:40:51.362Z,58.90
2018-08-19T06:42:53.372Z,58.90
2018-08-19T06:44:55.391Z,58.70
2018-08-19T06:46:57.362Z,58.80
2018-08-19T06:48:59.340Z,58.80
2018-08-19T06:51:01.354Z,58.80
2018-08-19T06:53:03.379Z,58.80
2018-08-19T06:55:05.393Z,58.80
2018-08-19T06:57:07.404Z,58.90
2018-08-19T06:59:09.428Z,59.00
2018-08-19T07:01:11.425Z,59.10
2018-08-19T07:03:13.466Z,59.10
2018-08-19T07:05:15.448Z,58.80
2018-08-19T07:07:17.424Z,58.70
2018-08-19T07:09:19.448Z,58.80
2018-08-19T07:11:21.605Z,59.10
2018-08-19T07:13:23.633Z,58.70
2018-08-19T07:15:25.659Z,59.00
2018-08-19T07:17:27.660Z,58.80
2018-08-19T07:19:29.642Z,58.70
2018-08-19T07:21:31.665Z,58.80
2018-08-19T07:23:33.667Z,58.90
2018-08-19T07:25:35.683Z,58.90
2018-08-19T07:27:37.694Z,58.90
2018-08-19T07:29:39.719Z,59.10
2018-08-19T07:31:41.704Z,59.10
2018-08-19T07:33:43.744Z,59.10
2018-08-19T07:35:45.708Z,59.40
2018-08-19T07:37:47.718Z,58.70
2018-08-19T07:39:49.708Z,58.60
2018-08-19T07:41:51.718Z,58.30
2018-08-19T07:43:53.758Z,57.90
2018-08-19T07:45:55.690Z,57.70
2018-08-19T07:47:57.724Z,57.50
2018-08-19T07:49:59.698Z,57.70
2018-08-19T07:52:01.755Z,57.60
2018-08-19T07:54:03.798Z,57.10
2018-08-19T07:56:05.772Z,56.80
2018-08-19T07:58:07.793Z,56.70
2018-08-19T08:00:09.771Z,56.40
2018-08-19T08:02:11.746Z,56.00
2018-08-19T08:04:13.761Z,56.00
2018-08-19T08:06:15.754Z,56.00
2018-08-19T08:08:17.801Z,56.00
2018-08-19T08:10:19.766Z,55.90
2018-08-19T08:12:21.755Z,55.70
2018-08-19T08:14:23.805Z,55.50
2018-08-19T08:16:25.766Z,55.10
2018-08-19T08:18:27.758Z,54.90
2018-08-19T08:20:29.786Z,55.00
2018-08-19T08:22:31.852Z,54.60
2018-08-19T08:24:33.806Z,54.60
2018-08-19T08:26:35.783Z,54.60
2018-08-19T08:28:37.804Z,54.10
2018-08-19T08:30:39.768Z,54.10
2018-08-19T08:32:41.806Z,54.40
2018-08-19T08:34:43.839Z,54.30
2018-08-19T08:36:45.817Z,54.20
2018-08-19T08:38:47.789Z,54.30
2018-08-19T08:40:49.837Z,54.10
2018-08-19T08:42:51.816Z,54.00
2018-08-19T08:44:53.777Z,54.10
2018-08-19T08:46:55.805Z,54.40
2018-08-19T08:48:57.812Z,54.70
2018-08-19T08:50:59.783Z,55.10
2018-08-19T08:53:01.800Z,54.20
2018-08-19T08:55:03.788Z,55.20
2018-08-19T08:57:05.845Z,55.40
2018-08-19T08:59:07.856Z,55.00
2018-08-19T09:01:09.862Z,54.70
2018-08-19T09:03:11.970Z,54.10
2018-08-19T09:05:13.949Z,54.40
2018-08-19T09:07:15.934Z,54.20
2018-08-19T09:09:17.948Z,53.40
2018-08-19T09:11:19.946Z,54.70
2018-08-19T09:13:21.936Z,52.60
2018-08-19T09:15:23.959Z,51.20
2018-08-19T09:17:26.018Z,51.20
2018-08-19T09:19:28.030Z,50.40
2018-08-19T09:21:30.022Z,50.30
2018-08-19T09:23:32.048Z,50.60
2018-08-19T09:25:34.076Z,50.20
2018-08-19T09:27:36.065Z,50.80
2018-08-19T09:29:38.054Z,51.20
2018-08-19T09:31:40.080Z,51.70
2018-08-19T09:33:42.076Z,51.90
2018-08-19T09:35:44.458Z,51.60
2018-08-19T09:37:46.476Z,51.60
2018-08-19T09:39:48.506Z,51.70
2018-08-19T09:41:50.534Z,51.70
2018-08-19T09:43:52.578Z,51.60
2018-08-19T09:45:54.548Z,51.20
2018-08-19T09:47:56.743Z,50.60
2018-08-19T09:49:58.582Z,50.50
2018-08-19T09:52:00.595Z,49.80
2018-08-19T09:54:02.636Z,51.00
2018-08-19T09:56:04.609Z,51.90
2018-08-19T09:58:06.609Z,52.70
2018-08-19T10:00:08.637Z,53.60
2018-08-19T10:02:10.616Z,54.30
2018-08-19T10:04:12.638Z,53.50
2018-08-19T10:06:14.656Z,54.00
2018-08-19T10:08:16.681Z,53.70
2018-08-19T10:10:18.656Z,53.70
2018-08-19T10:12:20.676Z,53.80
2018-08-19T10:14:22.702Z,53.60
2018-08-19T10:16:24.699Z,53.70
2018-08-19T10:18:26.708Z,53.50
2018-08-19T10:20:28.731Z,53.80
2018-08-19T10:22:30.702Z,53.50
2018-08-19T10:24:32.690Z,53.50
2018-08-19T10:26:34.746Z,53.80
2018-08-19T10:28:36.701Z,53.80
2018-08-19T10:30:38.677Z,53.60
2018-08-19T10:32:40.685Z,53.70
2018-08-19T10:34:42.663Z,53.50
2018-08-19T10:36:44.657Z,53.80
2018-08-19T10:38:46.676Z,53.60
2018-08-19T10:40:48.680Z,53.60
2018-08-19T10:42:50.754Z,53.40
2018-08-19T10:44:52.757Z,53.30
2018-08-19T10:46:54.737Z,53.50
2018-08-19T10:48:56.739Z,53.40
2018-08-19T10:50:58.720Z,53.30
2018-08-19T10:53:00.741Z,53.40
2018-08-19T10:55:02.717Z,53.20
2018-08-19T10:57:04.751Z,53.40
2018-08-19T10:59:06.770Z,53.40
2018-08-19T11:01:09.229Z,53.30
2018-08-19T11:03:11.232Z,53.10
2018-08-19T11:05:13.233Z,53.10
2018-08-19T11:07:15.277Z,52.90
2018-08-19T11:09:17.285Z,53.00
2018-08-19T11:11:19.303Z,53.10
2018-08-19T11:13:21.308Z,53.00
2018-08-19T11:15:23.255Z,53.00
2018-08-19T11:17:25.290Z,52.70
2018-08-19T11:19:27.328Z,52.90
2018-08-19T11:21:29.331Z,52.80
2018-08-19T11:23:31.337Z,52.70
2018-08-19T11:25:33.333Z,52.80
2018-08-19T11:27:35.372Z,52.80
2018-08-19T11:29:37.334Z,52.70
2018-08-19T11:31:39.348Z,52.90
2018-08-19T11:33:41.437Z,52.80
2018-08-19T11:35:43.407Z,52.60
2018-08-19T11:37:45.418Z,52.50
2018-08-19T11:39:47.401Z,52.60
2018-08-19T11:41:49.418Z,52.50
2018-08-19T11:43:51.523Z,52.50
2018-08-19T11:45:53.504Z,52.50
2018-08-19T11:47:55.536Z,52.50
2018-08-19T11:49:57.517Z,52.40
2018-08-19T11:51:59.538Z,52.30
2018-08-19T11:54:01.515Z,52.20
2018-08-19T11:56:03.498Z,52.20
2018-08-19T11:58:05.554Z,52.20
2018-08-19T12:00:07.537Z,52.10
2018-08-19T12:02:09.589Z,51.60
2018-08-19T12:04:11.524Z,52.10
2018-08-19T12:06:13.526Z,52.10
2018-08-19T12:08:15.504Z,52.10
2018-08-19T12:10:17.525Z,52.10
2018-08-19T12:12:20.508Z,52.10
2018-08-19T12:14:22.527Z,52.10
2018-08-19T12:16:24.504Z,52.00
2018-08-19T12:18:26.485Z,52.10
2018-08-19T12:20:28.497Z,52.10
2018-08-19T12:22:30.482Z,52.20
2018-08-19T12:24:32.470Z,51.90
2018-08-19T12:26:34.474Z,51.90
2018-08-19T12:28:36.476Z,51.90
2018-08-19T12:30:38.525Z,51.90
2018-08-19T12:32:40.506Z,52.00
2018-08-19T12:34:42.509Z,51.90
2018-08-19T12:36:44.565Z,51.90
2018-08-19T12:38:46.598Z,51.80
2018-08-19T12:40:48.623Z,51.80
2018-08-19T12:42:50.662Z,51.50
2018-08-19T12:44:52.673Z,51.90
2018-08-19T12:46:54.668Z,51.40
2018-08-19T12:48:56.687Z,51.50
2018-08-19T12:50:58.697Z,50.50
2018-08-19T12:53:00.709Z,50.60
2018-08-19T12:55:02.737Z,50.10
2018-08-19T12:57:04.722Z,50.30
2018-08-19T12:59:06.774Z,49.40
2018-08-19T13:01:08.765Z,48.50
2018-08-19T13:03:10.753Z,48.40
2018-08-19T13:05:12.760Z,48.00
2018-08-19T13:07:14.757Z,49.30
2018-08-19T13:09:16.780Z,48.70
2018-08-19T13:11:18.833Z,48.80
2018-08-19T13:13:20.888Z,47.50
2018-08-19T13:15:22.911Z,47.70
2018-08-19T13:17:24.932Z,47.70
2018-08-19T13:19:26.909Z,46.70
2018-08-19T13:21:28.914Z,47.30
2018-08-19T13:23:30.907Z,47.20
2018-08-19T13:25:32.928Z,47.70
2018-08-19T13:27:34.898Z,47.30
2018-08-19T13:29:36.903Z,46.70
2018-08-19T13:31:38.892Z,47.10
2018-08-19T13:33:40.905Z,47.70
2018-08-19T13:35:42.898Z,47.10
2018-08-19T13:37:44.908Z,46.80
2018-08-19T13:39:46.898Z,46.10
2018-08-19T13:41:48.980Z,46.70
2018-08-19T13:43:50.962Z,47.00
2018-08-19T13:45:52.985Z,47.00
2018-08-19T13:47:55.008Z,47.40
2018-08-19T13:49:56.984Z,47.30
2018-08-19T13:51:58.970Z,47.10
2018-08-19T13:54:00.998Z,47.10
2018-08-19T13:56:03.039Z,46.40
2018-08-19T13:58:05.048Z,46.20
2018-08-19T14:00:07.033Z,46.20
2018-08-19T14:02:09.030Z,46.40
2018-08-19T14:04:11.037Z,46.70
2018-08-19T14:06:13.074Z,47.10
2018-08-19T14:08:15.053Z,47.20
2018-08-19T14:10:17.028Z,47.30
2018-08-19T14:12:19.159Z,47.30
2018-08-19T14:14:21.104Z,47.00
2018-08-19T14:16:23.157Z,47.00
2018-08-19T14:18:25.181Z,46.90
2018-08-19T14:20:27.575Z,46.80
2018-08-19T14:22:29.584Z,46.80
2018-08-19T14:24:31.609Z,47.10
2018-08-19T14:26:33.594Z,47.20
2018-08-19T14:28:35.578Z,46.70
2018-08-19T14:30:37.700Z,46.90
2018-08-19T14:32:39.577Z,47.10
2018-08-19T14:34:41.620Z,47.30
2018-08-19T14:36:43.621Z,47.00
2018-08-19T14:38:45.596Z,46.80
2018-08-19T14:40:47.600Z,46.30
2018-08-19T14:42:49.641Z,46.30
2018-08-19T14:44:51.637Z,46.50
2018-08-19T14:46:53.616Z,46.70
2018-08-19T14:48:55.645Z,46.80
2018-08-19T14:50:57.670Z,46.80
2018-08-19T14:52:59.769Z,48.10
2018-08-19T14:55:01.773Z,47.00
2018-08-19T14:57:03.835Z,46.40
2018-08-19T14:59:05.811Z,47.00
2018-08-19T15:01:07.784Z,46.70
2018-08-19T15:03:09.790Z,47.00
2018-08-19T15:05:11.837Z,47.60
2018-08-19T15:07:13.816Z,48.30
2018-08-19T15:09:15.796Z,47.50
2018-08-19T15:11:17.837Z,47.80
2018-08-19T15:13:19.816Z,47.50
2018-08-19T15:15:21.838Z,47.60
2018-08-19T15:17:23.831Z,47.90
2018-08-19T15:19:25.859Z,47.90
2018-08-19T15:21:27.934Z,47.30
2018-08-19T15:23:29.898Z,46.70
2018-08-19T15:25:31.914Z,47.30
2018-08-19T15:27:33.928Z,47.40
2018-08-19T15:29:35.957Z,47.10
2018-08-19T15:31:37.959Z,47.00
2018-08-19T15:33:40.319Z,47.50
2018-08-19T15:35:42.297Z,48.30
2018-08-19T15:37:44.344Z,47.50
2018-08-19T15:39:46.463Z,47.50
2018-08-19T15:41:48.447Z,48.00
2018-08-19T15:43:50.479Z,47.60
2018-08-19T15:45:52.483Z,49.10
2018-08-19T15:47:54.481Z,47.50
2018-08-19T15:49:56.473Z,49.90
2018-08-19T15:51:58.480Z,48.60
2018-08-19T15:54:00.487Z,48.10
2018-08-19T15:56:02.473Z,47.90
2018-08-19T15:58:04.482Z,48.90
2018-08-19T16:00:06.510Z,48.30
2018-08-19T16:02:08.513Z,48.60
2018-08-19T16:04:10.542Z,48.00
2018-08-19T16:06:12.567Z,47.80
2018-08-19T16:08:14.595Z,47.90
2018-08-19T16:10:16.592Z,48.50
2018-08-19T16:12:18.592Z,47.90
2018-08-19T16:14:20.576Z,47.50
2018-08-19T16:16:22.567Z,48.30
2018-08-19T16:18:24.601Z,48.10
2018-08-19T16:20:26.638Z,48.20
2018-08-19T16:22:28.638Z,48.20
2018-08-19T16:24:30.621Z,48.20
2018-08-19T16:26:32.748Z,48.20
2018-08-19T16:28:34.938Z,48.20
2018-08-19T16:30:36.931Z,48.00
2018-08-19T16:32:38.960Z,48.10
2018-08-19T16:34:40.943Z,48.00
2018-08-19T16:36:42.929Z,49.00
2018-08-19T16:38:44.941Z,48.10
2018-08-19T16:40:46.981Z,48.10
2018-08-19T16:42:48.945Z,47.90
2018-08-19T16:44:50.971Z,47.60
2018-08-19T16:46:52.962Z,48.10
2018-08-19T16:48:54.954Z,48.10
2018-08-19T16:50:56.993Z,48.10
2018-08-19T16:52:58.972Z,48.10
2018-08-19T16:55:00.992Z,48.10
2018-08-19T16:57:03.075Z,48.20
2018-08-19T16:59:05.298Z,48.40
2018-08-19T17:01:07.310Z,48.60
2018-08-19T17:03:09.468Z,48.50
2018-08-19T17:05:11.317Z,48.50
2018-08-19T17:07:13.350Z,48.40
2018-08-19T17:09:15.347Z,48.40
2018-08-19T17:11:17.348Z,48.30
2018-08-19T17:13:19.355Z,48.30
2018-08-19T17:15:21.340Z,48.30
2018-08-19T17:17:23.390Z,48.20
2018-08-19T17:19:25.364Z,48.20
2018-08-19T17:21:27.381Z,47.80
2018-08-19T17:23:29.369Z,47.90
2018-08-19T17:25:31.375Z,48.00
2018-08-19T17:27:33.399Z,48.00
2018-08-19T17:29:35.426Z,48.00
2018-08-19T17:31:37.427Z,48.10
2018-08-19T17:33:39.427Z,48.20
2018-08-19T17:35:41.439Z,48.50
2018-08-19T17:37:43.404Z,48.50
2018-08-19T17:39:45.515Z,48.40
2018-08-19T17:41:47.497Z,48.60
2018-08-19T17:43:49.472Z,48.70
2018-08-19T17:45:51.634Z,48.60
2018-08-19T17:47:53.526Z,48.60
2018-08-19T17:49:55.577Z,48.70
2018-08-19T17:51:57.598Z,48.70
2018-08-19T17:53:59.578Z,48.80
2018-08-19T17:56:01.570Z,48.80
2018-08-19T17:58:03.600Z,48.90
2018-08-19T18:00:05.644Z,48.90
2018-08-19T18:02:07.614Z,49.00
2018-08-19T18:04:09.620Z,49.00
2018-08-19T18:06:11.613Z,49.00
2018-08-19T18:08:13.754Z,49.00
2018-08-19T18:10:15.770Z,48.60
2018-08-19T18:12:17.798Z,49.20
2018-08-19T18:14:19.833Z,49.30
2018-08-19T18:16:21.839Z,49.40
2018-08-19T18:18:23.876Z,49.50
2018-08-19T18:20:25.852Z,49.60
2018-08-19T18:22:27.829Z,49.70
2018-08-19T18:24:29.887Z,49.80
2018-08-19T18:26:31.856Z,48.80
2018-08-19T18:28:33.872Z,49.90
2018-08-19T18:30:35.917Z,50.00
2018-08-19T18:32:37.898Z,50.00
2018-08-19T18:34:39.892Z,50.10
2018-08-19T18:36:41.936Z,50.10
2018-08-19T18:38:43.930Z,50.30
2018-08-19T18:40:45.963Z,50.40
2018-08-19T18:42:47.966Z,50.60
2018-08-19T18:44:49.968Z,50.80
2018-08-19T18:46:51.978Z,50.80
2018-08-19T18:48:53.970Z,50.80
2018-08-19T18:50:56.009Z,50.80
2018-08-19T18:52:58.071Z,50.90
2018-08-19T18:55:00.090Z,50.90
2018-08-19T18:57:02.138Z,51.20
2018-08-19T18:59:04.205Z,51.20
2018-08-19T19:01:06.207Z,51.20
2018-08-19T19:03:08.230Z,51.30
2018-08-19T19:05:10.225Z,51.20
2018-08-19T19:07:12.248Z,51.30
2018-08-19T19:09:14.295Z,51.50
2018-08-19T19:11:16.287Z,51.40
2018-08-19T19:13:18.310Z,51.40
2018-08-19T19:15:20.342Z,51.30
2018-08-19T19:17:22.401Z,50.40
2018-08-19T19:19:24.403Z,51.20
2018-08-19T19:21:26.739Z,51.30
2018-08-19T19:23:28.751Z,51.30
2018-08-19T19:25:30.731Z,51.30
2018-08-19T19:27:32.756Z,51.30
2018-08-19T19:29:34.745Z,51.40
2018-08-19T19:31:36.778Z,51.40
2018-08-19T19:33:38.833Z,51.40
2018-08-19T19:35:41.801Z,51.20
2018-08-19T19:37:43.825Z,51.50
2018-08-19T19:39:45.851Z,51.50
2018-08-19T19:41:47.835Z,51.60
2018-08-19T19:43:49.899Z,51.70
2018-08-19T19:45:51.889Z,51.70
2018-08-19T19:47:53.890Z,51.70
2018-08-19T19:49:55.949Z,51.70
2018-08-19T19:51:57.929Z,51.70
2018-08-19T19:53:59.972Z,52.50
2018-08-19T19:56:01.987Z,51.90
2018-08-19T19:58:04.017Z,51.80
2018-08-19T20:00:06.011Z,51.50
2018-08-19T20:02:08.022Z,51.80
2018-08-19T20:04:09.998Z,51.90
2018-08-19T20:06:11.999Z,52.60
2018-08-19T20:08:14.007Z,51.90
2018-08-19T20:10:16.115Z,51.90
2018-08-19T20:12:18.166Z,52.00
2018-08-19T20:14:20.145Z,52.00
2018-08-19T20:16:22.183Z,52.00
2018-08-19T20:18:24.163Z,52.10
2018-08-19T20:20:26.172Z,52.00
2018-08-19T20:22:28.218Z,52.00
2018-08-19T20:24:30.220Z,52.20
2018-08-19T20:26:32.260Z,52.10
2018-08-19T20:28:34.276Z,52.10
2018-08-19T20:30:36.277Z,52.20
2018-08-19T20:32:38.313Z,52.20
2018-08-19T20:34:40.313Z,52.10
2018-08-19T20:36:42.305Z,52.20
2018-08-19T20:38:44.328Z,52.20
2018-08-19T20:40:46.386Z,52.20
2018-08-19T20:42:48.359Z,52.30
2018-08-19T20:44:50.349Z,52.20
2018-08-19T20:46:52.339Z,52.30
2018-08-19T20:48:54.363Z,52.50
2018-08-19T20:50:56.341Z,52.30
2018-08-19T20:52:58.378Z,52.20
2018-08-19T20:55:00.403Z,52.30
2018-08-19T20:57:02.450Z,52.40
2018-08-19T20:59:04.509Z,52.20
2018-08-19T21:01:06.503Z,52.30
2018-08-19T21:03:08.529Z,52.40
2018-08-19T21:05:10.507Z,52.40
2018-08-19T21:07:12.520Z,52.40
2018-08-19T21:09:14.544Z,52.30
2018-08-19T21:11:16.544Z,52.30
2018-08-19T21:13:18.523Z,52.50
2018-08-19T21:15:20.561Z,52.40
2018-08-19T21:17:22.551Z,52.50
2018-08-19T21:19:24.571Z,52.50
2018-08-19T21:21:26.571Z,52.50
2018-08-19T21:23:28.618Z,52.50
2018-08-19T21:25:30.655Z,52.50
2018-08-19T21:27:32.643Z,52.50
2018-08-19T21:29:34.682Z,52.50
2018-08-19T21:31:36.661Z,52.50
2018-08-19T21:33:38.646Z,52.50
2018-08-19T21:35:40.666Z,52.40
2018-08-19T21:37:42.653Z,52.40
2018-08-19T21:39:44.940Z,52.40
2018-08-19T21:41:46.975Z,52.50
2018-08-19T21:43:49.027Z,52.60
2018-08-19T21:45:51.044Z,52.60
2018-08-19T21:47:53.058Z,52.60
2018-08-19T21:49:55.130Z,52.50
2018-08-19T21:51:57.110Z,52.60
2018-08-19T21:53:59.144Z,52.60
2018-08-19T21:56:01.147Z,52.70
2018-08-19T21:58:03.156Z,53.20
2018-08-19T22:00:05.161Z,52.60
2018-08-19T22:02:07.213Z,52.60
2018-08-19T22:04:09.266Z,52.60
2018-08-19T22:06:11.286Z,52.60
2018-08-19T22:08:13.251Z,52.60
2018-08-19T22:10:15.222Z,52.50
2018-08-19T22:12:17.247Z,52.60
2018-08-19T22:14:19.242Z,52.60
2018-08-19T22:16:21.252Z,52.60
2018-08-19T22:18:23.243Z,52.50
2018-08-19T22:20:25.252Z,52.60
2018-08-19T22:22:27.339Z,52.60
2018-08-19T22:24:29.313Z,52.60
2018-08-19T22:26:31.350Z,52.60
2018-08-19T22:28:33.333Z,52.60
2018-08-19T22:30:35.354Z,52.70
2018-08-19T22:32:37.333Z,52.70
2018-08-19T22:34:39.371Z,52.60
2018-08-19T22:36:41.415Z,52.70
2018-08-19T22:38:43.383Z,52.70
2018-08-19T22:40:45.395Z,52.70
2018-08-19T22:42:47.373Z,52.70
2018-08-19T22:44:49.420Z,52.70
2018-08-19T22:46:51.455Z,52.70
2018-08-19T22:48:53.435Z,52.70
2018-08-19T22:50:55.432Z,52.80
2018-08-19T22:52:57.469Z,52.80
2018-08-19T22:54:59.501Z,52.80
2018-08-19T22:57:01.477Z,52.80
2018-08-19T22:59:03.501Z,52.80
2018-08-19T23:01:05.491Z,52.80
2018-08-19T23:03:07.501Z,52.80
2018-08-19T23:05:09.570Z,52.90
2018-08-19T23:07:11.561Z,52.90
2018-08-19T23:09:13.590Z,52.90
2018-08-19T23:11:15.611Z,52.90
2018-08-19T23:13:17.626Z,52.90
2018-08-19T23:15:19.621Z,52.90
2018-08-19T23:17:21.648Z,52.90
2018-08-19T23:19:23.636Z,53.00
2018-08-19T23:21:25.615Z,53.00
2018-08-19T23:23:27.640Z,53.00
2018-08-19T23:25:29.628Z,53.00
2018-08-19T23:27:31.648Z,52.70
2018-08-19T23:29:33.648Z,53.30
2018-08-19T23:31:35.666Z,53.10
2018-08-19T23:33:37.660Z,53.10
2018-08-19T23:35:39.630Z,53.10
2018-08-19T23:37:41.637Z,53.90
2018-08-19T23:39:43.651Z,53.20
2018-08-19T23:41:45.695Z,53.40
2018-08-19T23:43:47.688Z,53.50
2018-08-19T23:45:49.688Z,53.40
2018-08-19T23:47:51.715Z,53.40
2018-08-19T23:49:53.753Z,53.40
2018-08-19T23:51:55.785Z,53.30
2018-08-19T23:53:57.773Z,53.30
2018-08-19T23:56:00.138Z,53.10
2018-08-19T23:58:02.118Z,53.30
